KBGD/BGD METAR and TAF weather

Enter ICAO airport designator
Station Type Date Time Source
KBGD METAR 2021/05/12 04:51 UTC NOAA

KBGD 120451Z AUTO 02005KT 10SM OVC043 11/05 A3032 RMK AO2 SLP259 T01110050


Station Type Date Time Source
KBGD Decoded METAR 2021/05/12 04:51 UTC NOAA

BORGER HUTCHINSON CO AIRPORT , TX, United States (KBGD) 35-42N 101-24W 927M
May 12, 2021 - 12:51 AM EDT / 2021.05.12 0451 UTC
Wind: from the NNE (020 degrees) at 6 MPH (5 KT):0
Visibility: 10 mile(s):0
Sky conditions: overcast
Temperature: 52.0 F (11.1 C)
Dew Point: 41.0 F (5.0 C)
Relative Humidity: 66%
Pressure (altimeter): 30.32 in. Hg (1026 hPa)
ob: KBGD 120451Z AUTO 02005KT 10SM OVC043 11/05 A3032 RMK AO2 SLP259 T01110050
cycle: 5

Station Type Date Time Source
KBGD TAF UTC NOAA

Error!

Example: see airport list